createdAt,value
2023-02-19T00:00:09.350Z,86.30
2023-02-19T00:00:19.383Z,86.24
2023-02-19T00:00:29.342Z,86.20
2023-02-19T00:00:39.375Z,86.05
2023-02-19T00:00:49.445Z,86.16
2023-02-19T00:00:59.455Z,86.20
2023-02-19T00:01:09.651Z,86.14
2023-02-19T00:01:19.356Z,86.20
2023-02-19T00:01:29.342Z,86.24
2023-02-19T00:01:39.355Z,86.20
2023-02-19T00:01:49.344Z,86.20
2023-02-19T00:01:59.335Z,86.20
2023-02-19T00:02:09.356Z,86.30
2023-02-19T00:02:20.069Z,86.20
2023-02-19T00:02:30.014Z,86.44
2023-02-19T00:02:39.450Z,86.44
2023-02-19T00:02:49.336Z,86.40
2023-02-19T00:02:59.342Z,86.40
2023-02-19T00:03:09.375Z,86.44
2023-02-19T00:03:19.432Z,86.40
2023-02-19T00:03:29.388Z,86.40
2023-02-19T00:03:40.083Z,86.61
2023-02-19T00:03:49.426Z,86.71
2023-02-19T00:03:59.330Z,86.61
2023-02-19T00:04:09.376Z,86.71
2023-02-19T00:04:19.499Z,86.65
2023-02-19T00:04:29.346Z,86.55
2023-02-19T00:04:39.433Z,86.55
2023-02-19T00:04:49.408Z,86.51
2023-02-19T00:04:59.409Z,86.65
2023-02-19T00:05:09.369Z,86.51
2023-02-19T00:05:19.334Z,86.44
2023-02-19T00:05:29.333Z,86.40
2023-02-19T00:05:39.321Z,86.51
2023-02-19T00:05:49.334Z,86.51
2023-02-19T00:05:59.345Z,86.55
2023-02-19T00:06:09.328Z,86.51
2023-02-19T00:06:19.325Z,86.55
2023-02-19T00:06:29.380Z,86.40
2023-02-19T00:06:40.014Z,86.44
2023-02-19T00:06:49.510Z,86.44
2023-02-19T00:06:59.337Z,86.44
2023-02-19T00:07:09.313Z,86.51
2023-02-19T00:07:19.594Z,86.55
2023-02-19T00:07:29.313Z,86.44
2023-02-19T00:07:39.316Z,86.30
2023-02-19T00:07:50.044Z,86.40
2023-02-19T00:07:59.312Z,86.40
2023-02-19T00:08:09.307Z,86.55
2023-02-19T00:08:19.330Z,86.51
2023-02-19T00:08:29.433Z,86.51
2023-02-19T00:08:39.327Z,86.51
2023-02-19T00:08:50.031Z,86.65
2023-02-19T00:08:59.308Z,86.61
2023-02-19T00:09:09.320Z,86.65
2023-02-19T00:09:19.347Z,86.65
2023-02-19T00:09:29.315Z,86.55
2023-02-19T00:09:39.306Z,86.40
2023-02-19T00:09:49.309Z,86.34
2023-02-19T00:09:59.302Z,86.24
2023-02-19T00:10:09.336Z,86.20
2023-02-19T00:10:19.310Z,86.24
2023-02-19T00:10:29.310Z,86.20
2023-02-19T00:10:39.343Z,86.24
2023-02-19T00:10:49.367Z,86.26
2023-02-19T00:10:59.444Z,86.34
2023-02-19T00:11:09.669Z,86.24
2023-02-19T00:11:19.301Z,86.34
2023-02-19T00:11:29.294Z,86.30
2023-02-19T00:11:39.315Z,86.34
2023-02-19T00:11:49.300Z,86.30
2023-02-19T00:11:59.292Z,86.24
2023-02-19T00:12:09.317Z,86.20
2023-02-19T00:12:19.292Z,86.24
2023-02-19T00:12:29.300Z,86.14
2023-02-19T00:12:39.291Z,86.10
2023-02-19T00:12:49.288Z,86.04
2023-02-19T00:13:00.050Z,86.04
2023-02-19T00:13:09.311Z,85.89
2023-02-19T00:13:19.288Z,85.89
2023-02-19T00:13:29.298Z,85.89
2023-02-19T00:13:39.443Z,86.04
2023-02-19T00:13:49.298Z,86.04
2023-02-19T00:13:59.296Z,85.99
2023-02-19T00:14:09.310Z,85.99
2023-02-19T00:14:19.349Z,85.99
2023-02-19T00:14:30.025Z,85.99
2023-02-19T00:14:39.303Z,85.99
2023-02-19T00:14:50.011Z,85.99
2023-02-19T00:14:59.391Z,85.99
2023-02-19T00:15:09.283Z,85.99
2023-02-19T00:15:20.035Z,86.04
2023-02-19T00:15:29.332Z,85.96
2023-02-19T00:15:39.340Z,85.99
2023-02-19T00:15:49.303Z,85.99
2023-02-19T00:15:59.308Z,85.99
2023-02-19T00:16:09.282Z,86.04
2023-02-19T00:16:19.281Z,85.99
2023-02-19T00:16:29.301Z,85.89
2023-02-19T00:16:39.278Z,85.99
2023-02-19T00:16:49.270Z,85.89
2023-02-19T00:16:59.316Z,86.04
2023-02-19T00:17:09.274Z,86.10
2023-02-19T00:17:19.287Z,86.20
2023-02-19T00:17:29.280Z,86.20
2023-02-19T00:17:39.284Z,86.10
2023-02-19T00:17:49.280Z,85.99
2023-02-19T00:17:59.279Z,86.04
2023-02-19T00:18:09.270Z,85.99
2023-02-19T00:18:19.310Z,85.89
2023-02-19T00:18:30.182Z,86.04
2023-02-19T00:18:39.291Z,85.99
2023-02-19T00:18:49.640Z,86.04
2023-02-19T00:18:59.384Z,85.99
2023-02-19T00:19:09.279Z,85.99
2023-02-19T00:19:19.264Z,86.10
2023-02-19T00:19:29.275Z,86.20
2023-02-19T00:19:40.020Z,86.14
2023-02-19T00:19:49.334Z,86.14
2023-02-19T00:19:59.269Z,86.20
2023-02-19T00:20:09.261Z,86.20
2023-02-19T00:20:19.312Z,86.30
2023-02-19T00:20:29.268Z,86.44
2023-02-19T00:20:39.265Z,86.34
2023-02-19T00:20:49.272Z,86.30
2023-02-19T00:20:59.264Z,86.24
2023-02-19T00:21:09.646Z,86.20
2023-02-19T00:21:19.269Z,86.24
2023-02-19T00:21:29.256Z,86.14
2023-02-19T00:21:39.269Z,86.20
2023-02-19T00:21:49.260Z,86.20
2023-02-19T00:21:59.268Z,86.24
2023-02-19T00:22:09.249Z,86.24
2023-02-19T00:22:19.256Z,86.20
2023-02-19T00:22:29.259Z,86.24
2023-02-19T00:22:39.381Z,86.14
2023-02-19T00:22:49.361Z,86.04
2023-02-19T00:22:59.319Z,86.10
2023-02-19T00:23:09.250Z,86.04
2023-02-19T00:23:19.243Z,85.99
2023-02-19T00:23:30.038Z,85.99
2023-02-19T00:23:39.277Z,86.20
2023-02-19T00:23:49.240Z,86.10
2023-02-19T00:23:59.320Z,86.04
2023-02-19T00:24:09.260Z,86.10
2023-02-19T00:24:19.296Z,85.99
2023-02-19T00:24:29.254Z,86.10
2023-02-19T00:24:39.269Z,86.24
2023-02-19T00:24:49.378Z,86.20
2023-02-19T00:24:59.251Z,86.24
2023-02-19T00:25:09.259Z,86.34
2023-02-19T00:25:19.264Z,86.20
2023-02-19T00:25:29.233Z,86.10
2023-02-19T00:25:39.238Z,86.10
2023-02-19T00:25:49.231Z,86.14
2023-02-19T00:26:12.253Z,86.14
2023-02-19T00:26:18.261Z,86.10
2023-02-19T00:26:19.246Z,86.10
2023-02-19T00:26:29.238Z,86.10
2023-02-19T00:26:39.330Z,86.04
2023-02-19T00:26:49.268Z,85.99
2023-02-19T00:27:00.022Z,86.14
2023-02-19T00:27:09.335Z,86.10
2023-02-19T00:27:19.246Z,86.24
2023-02-19T00:27:29.238Z,86.20
2023-02-19T00:27:39.253Z,86.14
2023-02-19T00:27:49.262Z,86.20
2023-02-19T00:27:59.227Z,86.20
2023-02-19T00:28:09.236Z,86.20
2023-02-19T00:28:19.239Z,86.24
2023-02-19T00:28:29.221Z,86.24
2023-02-19T00:28:39.247Z,86.24
2023-02-19T00:28:49.288Z,86.34
2023-02-19T00:28:59.259Z,86.24
2023-02-19T00:29:09.340Z,86.34
2023-02-19T00:29:19.244Z,86.30
2023-02-19T00:29:29.240Z,86.20
2023-02-19T00:29:39.224Z,86.14
2023-02-19T00:29:49.225Z,86.20
2023-02-19T00:29:59.245Z,86.24
2023-02-19T00:30:09.378Z,86.24
2023-02-19T00:30:19.287Z,86.04
2023-02-19T00:30:29.240Z,85.83
2023-02-19T00:30:39.239Z,85.79
2023-02-19T00:30:49.249Z,85.79
2023-02-19T00:30:59.261Z,85.89
2023-02-19T00:31:10.502Z,85.93
2023-02-19T00:31:19.335Z,85.89
2023-02-19T00:31:32.208Z,85.89
2023-02-19T00:31:39.368Z,85.89
2023-02-19T00:31:49.360Z,85.83
2023-02-19T00:31:59.292Z,85.79
2023-02-19T00:32:09.254Z,85.79
2023-02-19T00:32:19.243Z,85.72
2023-02-19T00:32:29.237Z,85.79
2023-02-19T00:32:39.216Z,85.93
2023-02-19T00:32:49.205Z,85.69
2023-02-19T00:32:59.244Z,85.72
2023-02-19T00:33:09.250Z,85.58
2023-02-19T00:33:19.251Z,85.58
2023-02-19T00:33:29.211Z,85.69
2023-02-19T00:33:39.233Z,85.69
2023-02-19T00:33:49.208Z,85.72
2023-02-19T00:33:59.217Z,85.72
2023-02-19T00:34:09.212Z,85.79
2023-02-19T00:34:19.264Z,85.72
2023-02-19T00:34:29.196Z,85.83
2023-02-19T00:34:40.020Z,85.83
2023-02-19T00:34:49.216Z,85.83
2023-02-19T00:34:59.251Z,85.79
2023-02-19T00:35:09.293Z,85.79
2023-02-19T00:35:20.037Z,85.63
2023-02-19T00:35:29.196Z,85.63
2023-02-19T00:35:39.199Z,85.48
2023-02-19T00:35:52.049Z,85.38
2023-02-19T00:35:59.200Z,85.42
2023-02-19T00:36:09.190Z,85.52
2023-02-19T00:36:19.225Z,85.48
2023-02-19T00:36:29.206Z,85.48
2023-02-19T00:36:39.208Z,85.58
2023-02-19T00:36:49.217Z,85.63
2023-02-19T00:36:59.205Z,85.58
2023-02-19T00:37:09.196Z,85.63
2023-02-19T00:37:19.209Z,85.48
2023-02-19T00:37:29.191Z,85.48
2023-02-19T00:37:39.196Z,85.48
2023-02-19T00:37:49.263Z,85.48
2023-02-19T00:37:59.243Z,85.48
2023-02-19T00:38:09.305Z,85.52
2023-02-19T00:38:19.231Z,85.58
2023-02-19T00:38:29.268Z,85.58
2023-02-19T00:38:39.186Z,85.58
2023-02-19T00:38:49.212Z,85.63
2023-02-19T00:38:59.185Z,85.58
2023-02-19T00:39:09.317Z,85.58
2023-02-19T00:39:19.262Z,85.58
2023-02-19T00:39:29.333Z,85.69
2023-02-19T00:39:39.196Z,85.69
2023-02-19T00:39:49.190Z,85.69
2023-02-19T00:39:59.187Z,85.63
2023-02-19T00:40:09.195Z,85.63
2023-02-19T00:40:19.193Z,85.63
2023-02-19T00:40:29.186Z,85.63
2023-02-19T00:40:39.187Z,85.58
2023-02-19T00:40:49.249Z,85.63
2023-02-19T00:41:00.030Z,85.69
2023-02-19T00:41:09.541Z,85.72
2023-02-19T00:41:19.326Z,85.63
2023-02-19T00:41:29.167Z,85.69
2023-02-19T00:41:39.204Z,85.69
2023-02-19T00:41:49.169Z,85.58
2023-02-19T00:41:59.179Z,85.63
2023-02-19T00:42:09.180Z,85.63
2023-02-19T00:42:19.368Z,85.58
2023-02-19T00:42:30.061Z,85.58
2023-02-19T00:42:39.174Z,85.58
2023-02-19T00:42:49.176Z,85.63
2023-02-19T00:42:59.200Z,85.69
2023-02-19T00:43:09.212Z,85.69
2023-02-19T00:43:20.034Z,85.69
2023-02-19T00:43:29.270Z,85.72
2023-02-19T00:43:39.162Z,85.79
2023-02-19T00:43:49.170Z,85.69
2023-02-19T00:43:59.179Z,85.72
2023-02-19T00:44:09.165Z,85.72
2023-02-19T00:44:20.043Z,85.72
2023-02-19T00:44:29.207Z,85.69
2023-02-19T00:44:39.333Z,85.83
2023-02-19T00:44:49.187Z,85.83
2023-02-19T00:44:59.168Z,85.93
2023-02-19T00:45:09.186Z,85.93
2023-02-19T00:45:19.200Z,85.83
2023-02-19T00:45:29.163Z,85.89
2023-02-19T00:45:39.159Z,85.93
2023-02-19T00:45:49.193Z,85.99
2023-02-19T00:45:59.200Z,86.04
2023-02-19T00:46:09.209Z,85.99
2023-02-19T00:46:19.277Z,85.93
2023-02-19T00:46:29.241Z,85.79
2023-02-19T00:46:39.219Z,85.83
2023-02-19T00:46:49.209Z,85.83
2023-02-19T00:46:59.160Z,85.79
2023-02-19T00:47:10.038Z,85.83
2023-02-19T00:47:20.033Z,85.83
2023-02-19T00:47:30.104Z,85.72
2023-02-19T00:47:39.151Z,85.83
2023-02-19T00:47:49.144Z,85.83
2023-02-19T00:47:59.149Z,85.72
2023-02-19T00:48:09.159Z,85.79
2023-02-19T00:48:19.147Z,85.83
2023-02-19T00:48:29.147Z,85.83
2023-02-19T00:48:39.160Z,85.93
2023-02-19T00:48:49.150Z,85.93
2023-02-19T00:48:59.218Z,85.93
2023-02-19T00:49:09.156Z,85.79
2023-02-19T00:49:19.198Z,85.93
2023-02-19T00:49:29.140Z,85.93
2023-02-19T00:49:39.193Z,85.93
2023-02-19T00:49:49.219Z,85.99
2023-02-19T00:49:59.153Z,86.04
2023-02-19T00:50:09.149Z,86.04
2023-02-19T00:50:19.132Z,86.04
2023-02-19T00:50:29.153Z,86.04
2023-02-19T00:50:39.215Z,86.14
2023-02-19T00:50:49.134Z,86.14
2023-02-19T00:50:59.155Z,86.14
2023-02-19T00:51:09.508Z,86.24
2023-02-19T00:51:19.132Z,86.24
2023-02-19T00:51:30.046Z,86.24
2023-02-19T00:51:39.338Z,86.24
2023-02-19T00:51:49.163Z,86.20
2023-02-19T00:51:59.134Z,86.30
2023-02-19T00:52:09.140Z,86.34
2023-02-19T00:52:19.135Z,86.44
2023-02-19T00:52:29.148Z,86.55
2023-02-19T00:52:39.126Z,86.40
2023-02-19T00:52:49.130Z,86.44
2023-02-19T00:52:59.127Z,86.44
2023-02-19T00:53:09.145Z,86.44
2023-02-19T00:53:19.138Z,86.55
2023-02-19T00:53:29.133Z,86.55
2023-02-19T00:53:39.163Z,86.55
2023-02-19T00:53:49.154Z,86.55
2023-02-19T00:53:59.246Z,86.55
2023-02-19T00:54:09.119Z,86.55
2023-02-19T00:54:19.147Z,86.65
2023-02-19T00:54:29.148Z,86.51
2023-02-19T00:54:39.130Z,86.55
2023-02-19T00:54:49.122Z,86.55
2023-02-19T00:54:59.174Z,86.65
2023-02-19T00:55:09.128Z,86.65
2023-02-19T00:55:22.230Z,86.65
2023-02-19T00:55:29.128Z,86.75
2023-02-19T00:55:40.051Z,86.75
2023-02-19T00:55:49.232Z,86.75
2023-02-19T00:55:59.114Z,86.58
2023-02-19T00:56:09.129Z,86.55
2023-02-19T00:56:19.115Z,86.44
2023-02-19T00:56:29.118Z,86.55
2023-02-19T00:56:39.129Z,86.58
2023-02-19T00:56:49.140Z,86.65
2023-02-19T00:56:59.104Z,86.65
2023-02-19T00:57:09.110Z,86.75
2023-02-19T00:57:19.114Z,86.75
2023-02-19T00:57:29.145Z,86.85
2023-02-19T00:57:39.108Z,86.90
2023-02-19T00:57:49.117Z,86.90
2023-02-19T00:57:59.108Z,86.75
2023-02-19T00:58:09.112Z,86.75
2023-02-19T00:58:19.132Z,86.75
2023-02-19T00:58:29.107Z,86.75
2023-02-19T00:58:39.169Z,86.85
2023-02-19T00:58:49.116Z,86.99
2023-02-19T00:58:59.113Z,86.99
2023-02-19T00:59:09.121Z,86.90
2023-02-19T00:59:19.101Z,86.65
2023-02-19T00:59:29.121Z,86.65
2023-02-19T00:59:39.115Z,86.65
2023-02-19T00:59:49.395Z,86.65
2023-02-19T00:59:59.197Z,86.65
2023-02-19T01:00:09.262Z,86.65
2023-02-19T01:00:19.186Z,86.55
2023-02-19T01:00:29.100Z,86.44
2023-02-19T01:00:39.231Z,86.48
2023-02-19T01:00:49.092Z,86.34
2023-02-19T01:00:59.121Z,86.34
2023-02-19T01:01:09.533Z,86.30
2023-02-19T01:01:19.123Z,86.48
2023-02-19T01:01:29.159Z,86.44
2023-02-19T01:01:39.252Z,86.34
2023-02-19T01:01:49.122Z,86.34
2023-02-19T01:01:59.138Z,86.34
2023-02-19T01:02:09.133Z,86.44
2023-02-19T01:02:19.097Z,86.38
2023-02-19T01:02:29.094Z,86.38
2023-02-19T01:02:39.124Z,86.34
2023-02-19T01:02:49.110Z,86.38
2023-02-19T01:02:59.098Z,86.38
2023-02-19T01:03:09.090Z,86.24
2023-02-19T01:03:19.104Z,86.34
2023-02-19T01:03:29.135Z,86.34
2023-02-19T01:03:39.083Z,86.38
2023-02-19T01:03:50.135Z,86.34
2023-02-19T01:03:59.216Z,86.44
2023-02-19T01:04:09.093Z,86.44
2023-02-19T01:04:19.083Z,86.48
2023-02-19T01:04:29.187Z,86.58
2023-02-19T01:04:39.112Z,86.55
2023-02-19T01:04:49.156Z,86.44
2023-02-19T01:04:59.088Z,86.58
2023-02-19T01:05:09.093Z,86.55
2023-02-19T01:05:19.162Z,86.58
2023-02-19T01:05:29.249Z,86.55
2023-02-19T01:05:39.070Z,86.48
2023-02-19T01:05:49.076Z,86.55
2023-02-19T01:05:59.097Z,86.58
2023-02-19T01:06:09.068Z,86.55
2023-02-19T01:06:19.101Z,86.55
2023-02-19T01:06:29.067Z,86.48
2023-02-19T01:06:39.110Z,86.48
2023-02-19T01:06:49.181Z,86.34
2023-02-19T01:06:59.071Z,86.38
2023-02-19T01:07:10.129Z,86.34
2023-02-19T01:07:19.081Z,86.24
2023-02-19T01:07:29.080Z,86.34
2023-02-19T01:07:39.070Z,86.24
2023-02-19T01:07:49.204Z,86.24
2023-02-19T01:07:59.111Z,86.28
2023-02-19T01:08:09.082Z,86.24
2023-02-19T01:08:19.068Z,86.24
2023-02-19T01:08:30.046Z,86.24
2023-02-19T01:08:39.096Z,86.24
2023-02-19T01:08:49.065Z,86.24
2023-02-19T01:08:59.051Z,86.24
2023-02-19T01:09:09.085Z,86.14
2023-02-19T01:09:19.052Z,86.24
2023-02-19T01:09:29.059Z,86.28
2023-02-19T01:09:39.072Z,86.24
2023-02-19T01:09:49.058Z,86.24
2023-02-19T01:09:59.086Z,86.24
2023-02-19T01:10:09.068Z,86.24
2023-02-19T01:10:19.134Z,86.24
2023-02-19T01:10:29.105Z,86.34
2023-02-19T01:10:39.057Z,86.34
2023-02-19T01:10:49.058Z,86.14
2023-02-19T01:10:59.070Z,85.93
2023-02-19T01:11:09.488Z,86.04
2023-02-19T01:11:20.044Z,86.07
2023-02-19T01:11:29.051Z,85.93
2023-02-19T01:11:39.082Z,85.93
2023-02-19T01:11:50.101Z,85.93
2023-02-19T01:11:59.074Z,85.83
2023-02-19T01:12:09.102Z,85.83
2023-02-19T01:12:19.039Z,85.93
2023-02-19T01:12:29.049Z,85.87
2023-02-19T01:12:39.037Z,85.93
2023-02-19T01:12:49.046Z,85.83
2023-02-19T01:12:59.060Z,85.93
2023-02-19T01:13:09.040Z,85.93
2023-02-19T01:13:19.041Z,86.07
2023-02-19T01:13:29.074Z,86.14
2023-02-19T01:13:39.055Z,86.14
2023-02-19T01:13:49.070Z,86.14
2023-02-19T01:13:59.029Z,86.04
2023-02-19T01:14:09.042Z,85.93
2023-02-19T01:14:19.053Z,86.04
2023-02-19T01:14:29.072Z,85.93
2023-02-19T01:14:39.070Z,86.07
2023-02-19T01:14:49.037Z,86.04
2023-02-19T01:14:59.046Z,86.14
2023-02-19T01:15:09.023Z,86.18
2023-02-19T01:15:19.040Z,86.14
2023-02-19T01:15:29.027Z,86.24
2023-02-19T01:15:39.161Z,86.24
2023-02-19T01:15:49.070Z,86.24
2023-02-19T01:15:59.087Z,86.24
2023-02-19T01:16:09.124Z,86.28
2023-02-19T01:16:19.080Z,86.24
2023-02-19T01:16:29.116Z,86.14
2023-02-19T01:16:39.038Z,86.14
2023-02-19T01:16:49.057Z,85.97
2023-02-19T01:16:59.033Z,86.04
2023-02-19T01:17:09.123Z,86.07
2023-02-19T01:17:19.029Z,86.07
2023-02-19T01:17:29.020Z,86.04
2023-02-19T01:17:39.018Z,86.04
2023-02-19T01:17:49.055Z,86.04
2023-02-19T01:17:59.014Z,86.14
2023-02-19T01:18:09.052Z,86.14
2023-02-19T01:18:19.023Z,86.07
2023-02-19T01:18:29.012Z,86.07
2023-02-19T01:18:39.056Z,86.04
2023-02-19T01:18:49.556Z,86.04
2023-02-19T01:18:59.020Z,86.04
2023-02-19T01:19:09.051Z,86.14
2023-02-19T01:19:19.018Z,86.18
2023-02-19T01:19:29.538Z,86.18
2023-02-19T01:19:39.011Z,86.18
2023-02-19T01:19:49.012Z,86.24
2023-02-19T01:19:59.032Z,86.18
2023-02-19T01:20:09.060Z,86.28
2023-02-19T01:20:19.067Z,86.24
2023-02-19T01:20:29.012Z,86.24
2023-02-19T01:20:39.554Z,86.28
2023-02-19T01:20:49.054Z,86.18
2023-02-19T01:20:59.009Z,86.14
2023-02-19T01:21:09.500Z,86.24
2023-02-19T01:21:19.000Z,86.14
2023-02-19T01:21:29.031Z,86.24
2023-02-19T01:21:39.000Z,86.28
2023-02-19T01:21:49.016Z,86.38
2023-02-19T01:21:59.011Z,86.34
2023-02-19T01:22:09.004Z,86.38
2023-02-19T01:22:19.008Z,86.38
2023-02-19T01:22:29.022Z,86.24
2023-02-19T01:22:38.999Z,86.24
2023-02-19T01:22:49.008Z,86.24
2023-02-19T01:22:59.018Z,86.38
2023-02-19T01:23:09.021Z,86.48
2023-02-19T01:23:19.006Z,86.38
2023-02-19T01:23:29.009Z,86.34
2023-02-19T01:23:38.995Z,86.38
2023-02-19T01:23:49.002Z,86.34
2023-02-19T01:23:59.060Z,86.34
2023-02-19T01:24:09.015Z,86.24
2023-02-19T01:24:19.035Z,86.28
2023-02-19T01:24:28.990Z,86.07
2023-02-19T01:24:38.988Z,85.87
2023-02-19T01:24:48.994Z,85.93
2023-02-19T01:24:58.988Z,85.93
2023-02-19T01:25:08.989Z,85.97
2023-02-19T01:25:19.012Z,86.04
2023-02-19T01:25:29.001Z,86.04
2023-02-19T01:25:38.977Z,86.07
2023-02-19T01:25:49.109Z,86.07
2023-02-19T01:25:59.152Z,86.07
2023-02-19T01:26:08.976Z,86.04
2023-02-19T01:26:18.981Z,86.07
2023-02-19T01:26:29.004Z,86.18
2023-02-19T01:26:38.983Z,86.24
2023-02-19T01:26:48.980Z,86.18
2023-02-19T01:26:58.998Z,86.28
2023-02-19T01:27:08.998Z,86.28
2023-02-19T01:27:18.978Z,86.18
2023-02-19T01:27:28.976Z,85.97
2023-02-19T01:27:38.982Z,85.93
2023-02-19T01:27:48.968Z,85.97
2023-02-19T01:27:58.974Z,85.97
2023-02-19T01:28:08.995Z,86.07
2023-02-19T01:28:18.987Z,86.07
2023-02-19T01:28:29.022Z,85.93
2023-02-19T01:28:38.970Z,85.93
2023-02-19T01:28:48.997Z,85.93
2023-02-19T01:28:58.973Z,85.97
2023-02-19T01:29:09.008Z,85.87
2023-02-19T01:29:18.983Z,85.83
2023-02-19T01:29:28.984Z,85.83
2023-02-19T01:29:39.016Z,85.87
2023-02-19T01:29:48.959Z,85.83
2023-02-19T01:29:59.006Z,85.87
2023-02-19T01:30:08.977Z,85.87
2023-02-19T01:30:19.016Z,85.93
2023-02-19T01:30:29.047Z,85.97
2023-02-19T01:30:38.986Z,85.97
2023-02-19T01:30:48.960Z,85.97
2023-02-19T01:30:58.989Z,85.97
2023-02-19T01:31:09.579Z,85.93
2023-02-19T01:31:19.103Z,85.97
2023-02-19T01:31:29.081Z,85.97
2023-02-19T01:31:39.604Z,85.93
2023-02-19T01:31:49.035Z,85.93
2023-02-19T01:31:59.126Z,85.93
2023-02-19T01:32:09.093Z,85.97
2023-02-19T01:32:18.975Z,86.07
2023-02-19T01:32:29.009Z,86.07
2023-02-19T01:32:39.056Z,86.07
2023-02-19T01:32:48.953Z,86.14
2023-02-19T01:32:59.054Z,86.07
2023-02-19T01:33:08.945Z,86.07
2023-02-19T01:33:19.538Z,85.93
2023-02-19T01:33:28.954Z,85.97
2023-02-19T01:33:38.944Z,85.97
2023-02-19T01:33:48.959Z,85.93
2023-02-19T01:33:59.635Z,85.93
2023-02-19T01:34:08.997Z,85.93
2023-02-19T01:34:19.012Z,86.04
2023-02-19T01:34:28.947Z,86.04
2023-02-19T01:34:38.961Z,86.07
2023-02-19T01:34:48.940Z,86.07
2023-02-19T01:34:59.023Z,86.14
2023-02-19T01:35:08.937Z,86.04
2023-02-19T01:35:18.938Z,86.07
2023-02-19T01:35:28.955Z,85.97
2023-02-19T01:35:38.946Z,86.04
2023-02-19T01:35:48.939Z,86.07
2023-02-19T01:35:58.957Z,86.07
2023-02-19T01:36:08.941Z,86.04
2023-02-19T01:36:19.192Z,86.04
2023-02-19T01:36:29.032Z,86.18
2023-02-19T01:36:38.949Z,86.14
2023-02-19T01:36:48.936Z,86.28
2023-02-19T01:36:58.977Z,86.28
2023-02-19T01:37:09.568Z,86.24
2023-02-19T01:37:19.550Z,86.24
2023-02-19T01:37:28.974Z,86.28
2023-02-19T01:37:38.952Z,86.38
2023-02-19T01:37:48.942Z,86.34
2023-02-19T01:37:58.942Z,86.48
2023-02-19T01:38:08.945Z,86.48
2023-02-19T01:38:18.940Z,86.48
2023-02-19T01:38:28.926Z,86.48
2023-02-19T01:38:39.072Z,86.58
2023-02-19T01:38:48.951Z,86.58
2023-02-19T01:38:58.936Z,86.58
2023-02-19T01:39:08.933Z,86.55
2023-02-19T01:39:18.924Z,86.55
2023-02-19T01:39:28.952Z,86.69
2023-02-19T01:39:38.925Z,86.69
2023-02-19T01:39:48.931Z,86.79
2023-02-19T01:39:58.935Z,86.90
2023-02-19T01:40:08.929Z,86.96
2023-02-19T01:40:18.968Z,86.99
2023-02-19T01:40:28.935Z,86.96
2023-02-19T01:40:38.925Z,87.10
2023-02-19T01:40:48.921Z,87.06
2023-02-19T01:40:58.922Z,87.10
2023-02-19T01:41:09.461Z,87.20
2023-02-19T01:41:18.914Z,87.20
2023-02-19T01:41:28.969Z,87.20
2023-02-19T01:41:38.921Z,87.20
2023-02-19T01:41:48.909Z,87.20
2023-02-19T01:41:59.568Z,87.20
2023-02-19T01:42:08.911Z,87.26
2023-02-19T01:42:18.938Z,87.37
2023-02-19T01:42:28.912Z,87.41
2023-02-19T01:42:38.922Z,87.41
2023-02-19T01:42:48.917Z,87.51
2023-02-19T01:42:58.926Z,87.51
2023-02-19T01:43:08.911Z,87.51
2023-02-19T01:43:18.942Z,87.51
2023-02-19T01:43:28.921Z,87.55
2023-02-19T01:43:39.049Z,87.61
2023-02-19T01:43:48.915Z,87.61
2023-02-19T01:43:58.930Z,87.71
2023-02-19T01:44:08.933Z,87.71
2023-02-19T01:44:18.901Z,87.71
2023-02-19T01:44:29.552Z,87.71
2023-02-19T01:44:39.009Z,87.71
2023-02-19T01:44:48.898Z,87.82
2023-02-19T01:44:58.913Z,87.85
2023-02-19T01:45:08.905Z,87.92
2023-02-19T01:45:18.921Z,88.02
2023-02-19T01:45:28.902Z,88.02
2023-02-19T01:45:38.994Z,88.02
2023-02-19T01:45:48.895Z,88.12
2023-02-19T01:45:58.895Z,88.12
2023-02-19T01:46:08.906Z,88.12
2023-02-19T01:46:18.948Z,88.12
2023-02-19T01:46:28.974Z,88.27
2023-02-19T01:46:39.175Z,88.23
2023-02-19T01:46:48.976Z,88.47
2023-02-19T01:46:58.944Z,88.64
2023-02-19T01:47:08.945Z,88.74
2023-02-19T01:47:18.900Z,88.88
2023-02-19T01:47:28.911Z,89.09
2023-02-19T01:47:38.911Z,89.25
2023-02-19T01:47:48.895Z,89.25
2023-02-19T01:47:58.926Z,89.36
2023-02-19T01:48:08.914Z,89.45
2023-02-19T01:48:18.922Z,89.70
2023-02-19T01:48:28.894Z,89.70
2023-02-19T01:48:39.673Z,89.76
2023-02-19T01:48:48.895Z,89.90
2023-02-19T01:48:58.901Z,89.87
2023-02-19T01:49:08.892Z,90.01
2023-02-19T01:49:18.894Z,90.11
2023-02-19T01:49:29.558Z,90.22
2023-02-19T01:49:38.914Z,90.22
2023-02-19T01:49:48.986Z,90.22
2023-02-19T01:49:58.910Z,90.32
2023-02-19T01:50:08.901Z,90.32
2023-02-19T01:50:18.892Z,90.37
2023-02-19T01:50:28.902Z,90.52
2023-02-19T01:50:38.898Z,90.56
2023-02-19T01:50:48.889Z,90.62
2023-02-19T01:50:58.915Z,90.62
2023-02-19T01:51:09.179Z,90.73
2023-02-19T01:51:18.873Z,90.79
2023-02-19T01:51:28.878Z,90.83
2023-02-19T01:51:38.872Z,90.87
2023-02-19T01:51:48.951Z,91.03
2023-02-19T01:51:58.899Z,91.03
2023-02-19T01:52:08.895Z,91.14
2023-02-19T01:52:19.556Z,91.14
2023-02-19T01:52:28.875Z,91.24
2023-02-19T01:52:38.898Z,91.24
2023-02-19T01:52:49.547Z,91.35
2023-02-19T01:52:58.884Z,91.35
2023-02-19T01:53:08.887Z,91.35
2023-02-19T01:53:18.877Z,91.49
2023-02-19T01:53:28.874Z,91.40
2023-02-19T01:53:38.890Z,91.44
2023-02-19T01:53:48.891Z,91.55
2023-02-19T01:53:58.865Z,91.59
2023-02-19T01:54:08.894Z,91.55
2023-02-19T01:54:18.866Z,91.59
2023-02-19T01:54:28.878Z,91.55
2023-02-19T01:54:38.906Z,91.59
2023-02-19T01:54:48.894Z,91.69
2023-02-19T01:54:58.858Z,91.65
2023-02-19T01:55:08.866Z,91.84
2023-02-19T01:55:18.957Z,91.75
2023-02-19T01:55:28.861Z,91.80
2023-02-19T01:55:38.881Z,91.86
2023-02-19T01:55:48.918Z,91.96
2023-02-19T01:55:58.871Z,92.00
2023-02-19T01:56:09.557Z,92.00
2023-02-19T01:56:18.881Z,92.06
2023-02-19T01:56:28.854Z,92.06
2023-02-19T01:56:38.864Z,92.06
2023-02-19T01:56:49.565Z,92.10
2023-02-19T01:56:59.635Z,92.10
2023-02-19T01:57:08.880Z,92.10
2023-02-19T01:57:18.856Z,92.06
2023-02-19T01:57:28.848Z,92.16
2023-02-19T01:57:38.847Z,92.10
2023-02-19T01:57:48.851Z,92.21
2023-02-19T01:57:58.857Z,92.21
2023-02-19T01:58:08.849Z,92.41
2023-02-19T01:58:18.848Z,92.41
2023-02-19T01:58:28.853Z,92.41
2023-02-19T01:58:38.864Z,92.41
2023-02-19T01:58:48.846Z,92.51
2023-02-19T01:58:58.856Z,92.47
2023-02-19T01:59:08.848Z,92.47
2023-02-19T01:59:18.857Z,92.51
2023-02-19T01:59:28.859Z,92.51
2023-02-19T01:59:38.872Z,92.61
2023-02-19T01:59:48.898Z,92.57
2023-02-19T01:59:58.853Z,92.61
2023-02-19T02:00:08.835Z,92.61
2023-02-19T02:00:18.844Z,92.61
2023-02-19T02:00:28.911Z,92.61
2023-02-19T02:00:38.858Z,92.61
2023-02-19T02:00:48.867Z,92.72
2023-02-19T02:00:58.911Z,92.72
2023-02-19T02:01:09.177Z,92.72
2023-02-19T02:01:18.841Z,92.72
2023-02-19T02:01:28.832Z,92.68
2023-02-19T02:01:38.903Z,92.72
2023-02-19T02:01:49.658Z,92.76
2023-02-19T02:01:58.878Z,92.82
2023-02-19T02:02:09.015Z,92.82
2023-02-19T02:02:18.962Z,92.82
2023-02-19T02:02:28.831Z,92.93
2023-02-19T02:02:38.848Z,92.93
2023-02-19T02:02:48.871Z,93.02
2023-02-19T02:02:58.837Z,93.13
2023-02-19T02:03:08.846Z,93.13
2023-02-19T02:03:18.844Z,93.13
2023-02-19T02:03:28.822Z,93.13
2023-02-19T02:03:38.833Z,93.23
2023-02-19T02:03:48.908Z,93.27
2023-02-19T02:03:58.829Z,93.33
2023-02-19T02:04:08.832Z,93.33
2023-02-19T02:04:18.831Z,93.29
2023-02-19T02:04:28.824Z,93.23
2023-02-19T02:04:38.830Z,93.33
2023-02-19T02:04:48.832Z,93.23
2023-02-19T02:04:59.558Z,93.29
2023-02-19T02:05:08.834Z,93.29
2023-02-19T02:05:18.828Z,93.33
2023-02-19T02:05:28.825Z,93.38
2023-02-19T02:05:38.842Z,93.33
2023-02-19T02:05:48.837Z,93.33
2023-02-19T02:05:58.830Z,93.54
2023-02-19T02:06:09.551Z,93.39
2023-02-19T02:06:18.900Z,93.44
2023-02-19T02:06:28.834Z,93.54
2023-02-19T02:06:38.852Z,93.44
2023-02-19T02:06:48.820Z,93.64
2023-02-19T02:06:58.897Z,93.64
2023-02-19T02:07:08.817Z,93.44
2023-02-19T02:07:18.854Z,93.54
2023-02-19T02:07:28.812Z,93.54
2023-02-19T02:07:38.812Z,93.68
2023-02-19T02:07:48.812Z,93.64
2023-02-19T02:07:58.811Z,93.64
2023-02-19T02:08:08.849Z,93.74
2023-02-19T02:08:18.814Z,93.64
2023-02-19T02:08:28.816Z,93.74
2023-02-19T02:08:38.811Z,93.74
2023-02-19T02:08:48.799Z,93.79